sensor_id;sensor_type;location;lat;lon;timestamp;temperature;humidity
49679;DHT22;35570;48.218;16.326;2023-04-15T00:01:23;3.90;99.90
49679;DHT22;35570;48.218;16.326;2023-04-15T00:03:53;3.90;99.90
49679;DHT22;35570;48.218;16.326;2023-04-15T00:06:20;4.00;99.90
49679;DHT22;35570;48.218;16.326;2023-04-15T00:08:47;3.90;99.90
49679;DHT22;35570;48.218;16.326;2023-04-15T00:11:13;3.90;99.90
49679;DHT22;35570;48.218;16.326;2023-04-15T00:13:39;3.90;99.90
49679;DHT22;35570;48.218;16.326;2023-04-15T00:16:06;3.90;99.90
49679;DHT22;35570;48.218;16.326;2023-04-15T00:18:33;3.90;99.90
49679;DHT22;35570;48.218;16.326;2023-04-15T00:20:58;3.90;99.90
49679;DHT22;35570;48.218;16.326;2023-04-15T00:23:25;3.80;99.90
49679;DHT22;35570;48.218;16.326;2023-04-15T00:25:51;3.80;99.90
49679;DHT22;35570;48.218;16.326;2023-04-15T00:28:16;3.90;99.90
49679;DHT22;35570;48.218;16.326;2023-04-15T00:30:42;3.90;99.90
49679;DHT22;35570;48.218;16.326;2023-04-15T00:33:08;3.90;99.90
49679;DHT22;35570;48.218;16.326;2023-04-15T00:35:34;3.80;99.90
49679;DHT22;35570;48.218;16.326;2023-04-15T00:38:02;3.80;99.90
49679;DHT22;35570;48.218;16.326;2023-04-15T00:40:29;3.80;99.90
49679;DHT22;35570;48.218;16.326;2023-04-15T00:42:54;3.90;99.90
49679;DHT22;35570;48.218;16.326;2023-04-15T00:45:20;3.80;99.90
49679;DHT22;35570;48.218;16.326;2023-04-15T00:47:46;3.80;99.90
49679;DHT22;35570;48.218;16.326;2023-04-15T00:50:12;3.80;99.90
49679;DHT22;35570;48.218;16.326;2023-04-15T00:52:38;3.80;99.90
49679;DHT22;35570;48.218;16.326;2023-04-15T00:55:05;3.70;99.90
49679;DHT22;35570;48.218;16.326;2023-04-15T00:57:31;3.70;99.90
49679;DHT22;35570;48.218;16.326;2023-04-15T00:59:57;3.70;99.90
49679;DHT22;35570;48.218;16.326;2023-04-15T01:02:23;3.80;99.90
49679;DHT22;35570;48.218;16.326;2023-04-15T01:04:49;3.80;99.90
49679;DHT22;35570;48.218;16.326;2023-04-15T01:07:15;3.70;99.90
49679;DHT22;35570;48.218;16.326;2023-04-15T01:09:41;3.70;99.90
49679;DHT22;35570;48.218;16.326;2023-04-15T01:12:09;3.80;99.90
49679;DHT22;35570;48.218;16.326;2023-04-15T01:14:36;3.80;99.90
49679;DHT22;35570;48.218;16.326;2023-04-15T01:17:02;3.80;99.90
49679;DHT22;35570;48.218;16.326;2023-04-15T01:19:28;3.80;99.90
49679;DHT22;35570;48.218;16.326;2023-04-15T01:21:53;3.80;99.90
49679;DHT22;35570;48.218;16.326;2023-04-15T01:24:19;3.90;99.90
49679;DHT22;35570;48.218;16.326;2023-04-15T01:26:45;3.80;99.90
49679;DHT22;35570;48.218;16.326;2023-04-15T01:29:11;3.80;99.90
49679;DHT22;35570;48.218;16.326;2023-04-15T01:31:37;3.90;99.90
49679;DHT22;35570;48.218;16.326;2023-04-15T01:34:03;3.90;99.90
49679;DHT22;35570;48.218;16.326;2023-04-15T01:36:29;3.90;99.90
49679;DHT22;35570;48.218;16.326;2023-04-15T01:38:56;3.90;99.90
49679;DHT22;35570;48.218;16.326;2023-04-15T01:41:25;3.90;99.90
49679;DHT22;35570;48.218;16.326;2023-04-15T01:43:51;3.90;99.90
49679;DHT22;35570;48.218;16.326;2023-04-15T01:46:17;4.00;99.90
49679;DHT22;35570;48.218;16.326;2023-04-15T01:48:42;3.90;99.90
49679;DHT22;35570;48.218;16.326;2023-04-15T01:51:08;4.00;99.90
49679;DHT22;35570;48.218;16.326;2023-04-15T01:53:33;4.00;99.90
49679;DHT22;35570;48.218;16.326;2023-04-15T01:55:59;4.10;99.90
49679;DHT22;35570;48.218;16.326;2023-04-15T01:58:25;4.10;99.90
49679;DHT22;35570;48.218;16.326;2023-04-15T02:00:51;4.10;99.90
49679;DHT22;35570;48.218;16.326;2023-04-15T02:03:17;4.00;99.90
49679;DHT22;35570;48.218;16.326;2023-04-15T02:05:43;4.10;99.90
49679;DHT22;35570;48.218;16.326;2023-04-15T02:08:08;4.10;99.90
49679;DHT22;35570;48.218;16.326;2023-04-15T02:10:34;4.10;99.90
49679;DHT22;35570;48.218;16.326;2023-04-15T02:13:00;4.10;99.90
49679;DHT22;35570;48.218;16.326;2023-04-15T02:15:26;4.10;99.90
49679;DHT22;35570;48.218;16.326;2023-04-15T02:17:52;4.10;99.90
49679;DHT22;35570;48.218;16.326;2023-04-15T02:20:19;4.10;99.90
49679;DHT22;35570;48.218;16.326;2023-04-15T02:22:46;4.20;99.90
49679;DHT22;35570;48.218;16.326;2023-04-15T02:25:13;4.20;99.90
49679;DHT22;35570;48.218;16.326;2023-04-15T02:27:38;4.20;99.90
49679;DHT22;35570;48.218;16.326;2023-04-15T02:30:05;4.10;99.90
49679;DHT22;35570;48.218;16.326;2023-04-15T02:32:32;4.20;99.90
49679;DHT22;35570;48.218;16.326;2023-04-15T02:35:06;4.20;99.90
49679;DHT22;35570;48.218;16.326;2023-04-15T02:37:32;4.10;99.90
49679;DHT22;35570;48.218;16.326;2023-04-15T02:40:01;4.20;99.90
49679;DHT22;35570;48.218;16.326;2023-04-15T02:42:27;4.20;99.90
49679;DHT22;35570;48.218;16.326;2023-04-15T02:44:54;4.20;99.90
49679;DHT22;35570;48.218;16.326;2023-04-15T02:47:20;4.20;99.90
49679;DHT22;35570;48.218;16.326;2023-04-15T02:49:46;4.20;99.90
49679;DHT22;35570;48.218;16.326;2023-04-15T02:52:12;4.10;99.90
49679;DHT22;35570;48.218;16.326;2023-04-15T02:54:38;4.20;99.90
49679;DHT22;35570;48.218;16.326;2023-04-15T02:57:04;4.20;99.90
49679;DHT22;35570;48.218;16.326;2023-04-15T02:59:31;4.20;99.90
49679;DHT22;35570;48.218;16.326;2023-04-15T03:01:56;4.20;99.90
49679;DHT22;35570;48.218;16.326;2023-04-15T03:04:25;4.20;99.90
49679;DHT22;35570;48.218;16.326;2023-04-15T03:06:51;4.10;99.90
49679;DHT22;35570;48.218;16.326;2023-04-15T03:09:16;4.20;99.90
49679;DHT22;35570;48.218;16.326;2023-04-15T03:11:42;4.20;99.90
49679;DHT22;35570;48.218;16.326;2023-04-15T03:14:08;4.20;99.90
49679;DHT22;35570;48.218;16.326;2023-04-15T03:16:33;4.20;99.90
49679;DHT22;35570;48.218;16.326;2023-04-15T03:18:59;4.20;99.90
49679;DHT22;35570;48.218;16.326;2023-04-15T03:21:24;4.20;99.90
49679;DHT22;35570;48.218;16.326;2023-04-15T03:23:51;4.20;99.90
49679;DHT22;35570;48.218;16.326;2023-04-15T03:26:30;4.30;99.90
49679;DHT22;35570;48.218;16.326;2023-04-15T03:28:56;4.30;99.90
49679;DHT22;35570;48.218;16.326;2023-04-15T03:31:22;4.30;99.90
49679;DHT22;35570;48.218;16.326;2023-04-15T03:33:48;4.30;99.90
49679;DHT22;35570;48.218;16.326;2023-04-15T03:36:13;4.30;99.90
49679;DHT22;35570;48.218;16.326;2023-04-15T03:38:40;4.30;99.90
49679;DHT22;35570;48.218;16.326;2023-04-15T03:41:05;4.30;99.90
49679;DHT22;35570;48.218;16.326;2023-04-15T03:43:32;4.30;99.90
49679;DHT22;35570;48.218;16.326;2023-04-15T03:45:57;4.30;99.90
49679;DHT22;35570;48.218;16.326;2023-04-15T03:48:23;4.30;99.90
49679;DHT22;35570;48.218;16.326;2023-04-15T03:50:49;4.30;99.90
49679;DHT22;35570;48.218;16.326;2023-04-15T03:53:14;4.30;99.90
49679;DHT22;35570;48.218;16.326;2023-04-15T03:55:40;4.30;99.90
49679;DHT22;35570;48.218;16.326;2023-04-15T03:58:06;4.30;99.90
49679;DHT22;35570;48.218;16.326;2023-04-15T04:00:31;4.30;99.90
49679;DHT22;35570;48.218;16.326;2023-04-15T04:02:57;4.30;99.90
49679;DHT22;35570;48.218;16.326;2023-04-15T04:05:23;4.30;99.90
49679;DHT22;35570;48.218;16.326;2023-04-15T04:07:48;4.40;99.90
49679;DHT22;35570;48.218;16.326;2023-04-15T04:10:14;4.40;99.90
49679;DHT22;35570;48.218;16.326;2023-04-15T04:12:40;4.40;99.90
49679;DHT22;35570;48.218;16.326;2023-04-15T04:15:06;4.40;99.90
49679;DHT22;35570;48.218;16.326;2023-04-15T04:17:32;4.40;99.90
49679;DHT22;35570;48.218;16.326;2023-04-15T04:19:58;4.30;99.90
49679;DHT22;35570;48.218;16.326;2023-04-15T04:22:23;4.40;99.90
49679;DHT22;35570;48.218;16.326;2023-04-15T04:24:49;4.40;99.90
49679;DHT22;35570;48.218;16.326;2023-04-15T04:27:15;4.50;99.90
49679;DHT22;35570;48.218;16.326;2023-04-15T04:29:41;4.50;99.90
49679;DHT22;35570;48.218;16.326;2023-04-15T04:32:06;4.40;99.90
49679;DHT22;35570;48.218;16.326;2023-04-15T04:34:32;4.40;99.90
49679;DHT22;35570;48.218;16.326;2023-04-15T04:36:58;4.50;99.90
49679;DHT22;35570;48.218;16.326;2023-04-15T04:39:24;4.60;99.90
49679;DHT22;35570;48.218;16.326;2023-04-15T04:41:49;4.60;99.90
49679;DHT22;35570;48.218;16.326;2023-04-15T04:44:17;4.60;99.90
49679;DHT22;35570;48.218;16.326;2023-04-15T04:46:42;4.60;99.90
49679;DHT22;35570;48.218;16.326;2023-04-15T04:49:08;4.50;99.90
49679;DHT22;35570;48.218;16.326;2023-04-15T04:51:34;4.50;99.90
49679;DHT22;35570;48.218;16.326;2023-04-15T04:54:00;4.60;99.90
49679;DHT22;35570;48.218;16.326;2023-04-15T04:56:26;4.60;99.90
49679;DHT22;35570;48.218;16.326;2023-04-15T04:58:52;4.70;99.90
49679;DHT22;35570;48.218;16.326;2023-04-15T05:01:18;4.70;99.90
49679;DHT22;35570;48.218;16.326;2023-04-15T05:03:43;4.60;99.90
49679;DHT22;35570;48.218;16.326;2023-04-15T05:06:09;4.70;99.90
49679;DHT22;35570;48.218;16.326;2023-04-15T05:08:35;4.70;99.90
49679;DHT22;35570;48.218;16.326;2023-04-15T05:11:01;4.80;99.90
49679;DHT22;35570;48.218;16.326;2023-04-15T05:13:27;4.80;99.90
49679;DHT22;35570;48.218;16.326;2023-04-15T05:15:54;4.90;99.90
49679;DHT22;35570;48.218;16.326;2023-04-15T05:18:20;4.90;99.90
49679;DHT22;35570;48.218;16.326;2023-04-15T05:20:45;4.90;99.90
49679;DHT22;35570;48.218;16.326;2023-04-15T05:23:11;4.80;99.90
49679;DHT22;35570;48.218;16.326;2023-04-15T05:25:37;4.90;99.90
49679;DHT22;35570;48.218;16.326;2023-04-15T05:28:02;4.80;99.90
49679;DHT22;35570;48.218;16.326;2023-04-15T05:30:28;4.90;99.90
49679;DHT22;35570;48.218;16.326;2023-04-15T05:32:54;5.00;99.90
49679;DHT22;35570;48.218;16.326;2023-04-15T05:35:19;4.90;99.90
49679;DHT22;35570;48.218;16.326;2023-04-15T05:37:45;4.90;99.90
49679;DHT22;35570;48.218;16.326;2023-04-15T05:40:11;5.00;99.90
49679;DHT22;35570;48.218;16.326;2023-04-15T05:42:37;5.00;99.90
49679;DHT22;35570;48.218;16.326;2023-04-15T05:45:03;5.00;99.90
49679;DHT22;35570;48.218;16.326;2023-04-15T05:47:36;5.20;99.90
49679;DHT22;35570;48.218;16.326;2023-04-15T05:50:05;5.30;99.90
49679;DHT22;35570;48.218;16.326;2023-04-15T05:52:31;5.30;99.90
49679;DHT22;35570;48.218;16.326;2023-04-15T05:54:57;5.30;99.90
49679;DHT22;35570;48.218;16.326;2023-04-15T05:57:22;5.40;99.90
49679;DHT22;35570;48.218;16.326;2023-04-15T05:59:48;5.40;99.90
49679;DHT22;35570;48.218;16.326;2023-04-15T06:02:16;5.40;99.90
49679;DHT22;35570;48.218;16.326;2023-04-15T06:04:42;5.40;99.90
49679;DHT22;35570;48.218;16.326;2023-04-15T06:07:08;5.50;99.90
49679;DHT22;35570;48.218;16.326;2023-04-15T06:09:34;5.50;99.90
49679;DHT22;35570;48.218;16.326;2023-04-15T06:11:59;5.60;99.90
49679;DHT22;35570;48.218;16.326;2023-04-15T06:14:26;5.60;99.90
49679;DHT22;35570;48.218;16.326;2023-04-15T06:16:52;5.50;99.90
49679;DHT22;35570;48.218;16.326;2023-04-15T06:19:17;5.50;99.90
49679;DHT22;35570;48.218;16.326;2023-04-15T06:21:44;5.60;99.90
49679;DHT22;35570;48.218;16.326;2023-04-15T06:24:10;5.60;99.90
49679;DHT22;35570;48.218;16.326;2023-04-15T06:26:36;5.60;99.90
49679;DHT22;35570;48.218;16.326;2023-04-15T06:29:02;5.60;99.90
49679;DHT22;35570;48.218;16.326;2023-04-15T06:31:27;5.60;99.90
49679;DHT22;35570;48.218;16.326;2023-04-15T06:33:53;5.70;99.90
49679;DHT22;35570;48.218;16.326;2023-04-15T06:36:19;5.60;99.90
49679;DHT22;35570;48.218;16.326;2023-04-15T06:38:45;5.70;99.90
49679;DHT22;35570;48.218;16.326;2023-04-15T06:41:11;5.80;99.90
49679;DHT22;35570;48.218;16.326;2023-04-15T06:43:36;5.80;99.90
49679;DHT22;35570;48.218;16.326;2023-04-15T06:46:02;5.80;99.90
49679;DHT22;35570;48.218;16.326;2023-04-15T06:48:28;5.80;99.90
49679;DHT22;35570;48.218;16.326;2023-04-15T06:50:54;5.80;99.90
49679;DHT22;35570;48.218;16.326;2023-04-15T06:53:19;5.90;99.90
49679;DHT22;35570;48.218;16.326;2023-04-15T06:55:46;6.00;99.90
49679;DHT22;35570;48.218;16.326;2023-04-15T06:58:12;6.00;99.90
49679;DHT22;35570;48.218;16.326;2023-04-15T07:00:37;6.10;99.90
49679;DHT22;35570;48.218;16.326;2023-04-15T07:03:04;6.10;99.90
49679;DHT22;35570;48.218;16.326;2023-04-15T07:05:30;6.10;99.90
49679;DHT22;35570;48.218;16.326;2023-04-15T07:07:57;6.00;99.90
49679;DHT22;35570;48.218;16.326;2023-04-15T07:10:22;6.10;99.90
49679;DHT22;35570;48.218;16.326;2023-04-15T07:12:48;6.20;99.90
49679;DHT22;35570;48.218;16.326;2023-04-15T07:15:15;6.20;99.90
49679;DHT22;35570;48.218;16.326;2023-04-15T07:17:41;6.20;99.90
49679;DHT22;35570;48.218;16.326;2023-04-15T07:20:10;6.20;99.90
49679;DHT22;35570;48.218;16.326;2023-04-15T07:22:37;6.20;99.90
49679;DHT22;35570;48.218;16.326;2023-04-15T07:25:03;6.20;99.90
49679;DHT22;35570;48.218;16.326;2023-04-15T07:27:28;6.30;99.90
49679;DHT22;35570;48.218;16.326;2023-04-15T07:29:54;6.30;99.90
49679;DHT22;35570;48.218;16.326;2023-04-15T07:32:20;6.40;99.90
49679;DHT22;35570;48.218;16.326;2023-04-15T07:34:45;6.50;99.90
49679;DHT22;35570;48.218;16.326;2023-04-15T07:37:11;6.60;99.90
49679;DHT22;35570;48.218;16.326;2023-04-15T07:39:37;6.60;99.90
49679;DHT22;35570;48.218;16.326;2023-04-15T07:42:03;6.60;99.90
49679;DHT22;35570;48.218;16.326;2023-04-15T07:44:29;6.60;99.90
49679;DHT22;35570;48.218;16.326;2023-04-15T07:46:55;6.70;99.90
49679;DHT22;35570;48.218;16.326;2023-04-15T07:49:21;6.80;99.90
49679;DHT22;35570;48.218;16.326;2023-04-15T07:51:47;6.70;99.90
49679;DHT22;35570;48.218;16.326;2023-04-15T07:54:14;6.80;99.90
49679;DHT22;35570;48.218;16.326;2023-04-15T07:56:40;6.90;99.90
49679;DHT22;35570;48.218;16.326;2023-04-15T07:59:06;7.00;99.90
49679;DHT22;35570;48.218;16.326;2023-04-15T08:01:31;7.00;99.90
49679;DHT22;35570;48.218;16.326;2023-04-15T08:03:58;7.10;99.90
49679;DHT22;35570;48.218;16.326;2023-04-15T08:06:24;7.10;99.90
49679;DHT22;35570;48.218;16.326;2023-04-15T08:08:49;7.20;99.90
49679;DHT22;35570;48.218;16.326;2023-04-15T08:11:15;7.20;99.90
49679;DHT22;35570;48.218;16.326;2023-04-15T08:13:41;7.20;99.90
49679;DHT22;35570;48.218;16.326;2023-04-15T08:16:20;7.20;99.90
49679;DHT22;35570;48.218;16.326;2023-04-15T08:18:47;7.30;99.90
49679;DHT22;35570;48.218;16.326;2023-04-15T08:21:13;7.40;99.90
49679;DHT22;35570;48.218;16.326;2023-04-15T08:23:39;7.40;99.90
49679;DHT22;35570;48.218;16.326;2023-04-15T08:26:05;7.50;99.90
49679;DHT22;35570;48.218;16.326;2023-04-15T08:28:31;7.40;99.90
49679;DHT22;35570;48.218;16.326;2023-04-15T08:30:56;7.40;99.90
49679;DHT22;35570;48.218;16.326;2023-04-15T08:33:22;7.40;99.90
49679;DHT22;35570;48.218;16.326;2023-04-15T08:35:48;7.30;99.90
49679;DHT22;35570;48.218;16.326;2023-04-15T08:38:14;7.20;99.90
49679;DHT22;35570;48.218;16.326;2023-04-15T08:40:44;7.20;99.90
49679;DHT22;35570;48.218;16.326;2023-04-15T08:43:13;7.30;99.90
49679;DHT22;35570;48.218;16.326;2023-04-15T08:45:40;7.30;99.90
49679;DHT22;35570;48.218;16.326;2023-04-15T08:48:08;7.30;99.90
49679;DHT22;35570;48.218;16.326;2023-04-15T08:50:37;7.30;99.90
49679;DHT22;35570;48.218;16.326;2023-04-15T08:53:04;7.30;99.90
49679;DHT22;35570;48.218;16.326;2023-04-15T08:55:32;7.30;99.90
49679;DHT22;35570;48.218;16.326;2023-04-15T08:58:01;7.20;99.90
49679;DHT22;35570;48.218;16.326;2023-04-15T09:00:28;7.10;99.90
49679;DHT22;35570;48.218;16.326;2023-04-15T09:02:55;7.00;99.90
49679;DHT22;35570;48.218;16.326;2023-04-15T09:05:21;7.10;99.90
49679;DHT22;35570;48.218;16.326;2023-04-15T09:07:49;7.10;99.90
49679;DHT22;35570;48.218;16.326;2023-04-15T09:10:14;7.10;99.90
49679;DHT22;35570;48.218;16.326;2023-04-15T09:12:40;7.20;99.90
49679;DHT22;35570;48.218;16.326;2023-04-15T09:15:07;7.20;99.90
49679;DHT22;35570;48.218;16.326;2023-04-15T09:17:41;7.20;99.90
49679;DHT22;35570;48.218;16.326;2023-04-15T09:22:38;7.10;99.90
49679;DHT22;35570;48.218;16.326;2023-04-15T09:25:25;7.10;99.90
49679;DHT22;35570;48.218;16.326;2023-04-15T09:27:56;7.10;99.90
49679;DHT22;35570;48.218;16.326;2023-04-15T09:30:22;7.20;99.90
49679;DHT22;35570;48.218;16.326;2023-04-15T09:32:55;7.30;99.90
49679;DHT22;35570;48.218;16.326;2023-04-15T09:35:22;7.40;99.90
49679;DHT22;35570;48.218;16.326;2023-04-15T09:37:49;7.40;99.90
49679;DHT22;35570;48.218;16.326;2023-04-15T09:40:30;7.50;99.90
49679;DHT22;35570;48.218;16.326;2023-04-15T09:42:57;7.50;99.90
49679;DHT22;35570;48.218;16.326;2023-04-15T09:45:23;7.60;99.90
49679;DHT22;35570;48.218;16.326;2023-04-15T09:47:49;7.60;99.90
49679;DHT22;35570;48.218;16.326;2023-04-15T09:50:18;7.60;99.90
49679;DHT22;35570;48.218;16.326;2023-04-15T09:52:45;7.70;99.90
49679;DHT22;35570;48.218;16.326;2023-04-15T09:55:12;7.70;99.90
49679;DHT22;35570;48.218;16.326;2023-04-15T09:57:39;7.70;99.90
49679;DHT22;35570;48.218;16.326;2023-04-15T10:00:07;7.70;99.90
49679;DHT22;35570;48.218;16.326;2023-04-15T10:02:34;7.60;99.90
49679;DHT22;35570;48.218;16.326;2023-04-15T10:05:01;7.60;99.90
49679;DHT22;35570;48.218;16.326;2023-04-15T10:07:27;7.50;99.90
49679;DHT22;35570;48.218;16.326;2023-04-15T10:09:53;7.30;99.90
49679;DHT22;35570;48.218;16.326;2023-04-15T10:12:19;7.30;99.90
49679;DHT22;35570;48.218;16.326;2023-04-15T10:14:57;7.20;99.90
49679;DHT22;35570;48.218;16.326;2023-04-15T10:17:27;7.20;99.90
49679;DHT22;35570;48.218;16.326;2023-04-15T10:20:00;7.10;99.90
49679;DHT22;35570;48.218;16.326;2023-04-15T10:22:27;7.20;99.90
49679;DHT22;35570;48.218;16.326;2023-04-15T10:24:54;7.30;99.90
49679;DHT22;35570;48.218;16.326;2023-04-15T10:27:20;7.50;99.90
49679;DHT22;35570;48.218;16.326;2023-04-15T10:29:50;7.50;99.90
49679;DHT22;35570;48.218;16.326;2023-04-15T10:32:18;7.50;99.90
49679;DHT22;35570;48.218;16.326;2023-04-15T10:34:46;7.60;99.90
49679;DHT22;35570;48.218;16.326;2023-04-15T10:37:24;7.60;99.90
49679;DHT22;35570;48.218;16.326;2023-04-15T10:39:57;7.50;99.90
49679;DHT22;35570;48.218;16.326;2023-04-15T10:42:23;7.60;99.90
49679;DHT22;35570;48.218;16.326;2023-04-15T10:44:50;7.60;99.90
49679;DHT22;35570;48.218;16.326;2023-04-15T10:47:18;7.60;99.90
49679;DHT22;35570;48.218;16.326;2023-04-15T10:49:48;7.70;99.90
49679;DHT22;35570;48.218;16.326;2023-04-15T10:52:16;7.70;99.90
49679;DHT22;35570;48.218;16.326;2023-04-15T10:54:42;7.70;99.90
49679;DHT22;35570;48.218;16.326;2023-04-15T11:05:15;8.00;99.90
49679;DHT22;35570;48.218;16.326;2023-04-15T11:12:52;8.20;99.90
49679;DHT22;35570;48.218;16.326;2023-04-15T11:18:19;8.20;99.90
49679;DHT22;35570;48.218;16.326;2023-04-15T11:20:51;8.10;99.90
49679;DHT22;35570;48.218;16.326;2023-04-15T11:25:59;8.00;99.90
49679;DHT22;35570;48.218;16.326;2023-04-15T11:28:26;8.10;99.90
49679;DHT22;35570;48.218;16.326;2023-04-15T11:30:52;8.10;99.90
49679;DHT22;35570;48.218;16.326;2023-04-15T11:33:20;8.20;99.90
49679;DHT22;35570;48.218;16.326;2023-04-15T11:35:46;8.20;99.90
49679;DHT22;35570;48.218;16.326;2023-04-15T11:38:13;8.30;99.90
49679;DHT22;35570;48.218;16.326;2023-04-15T11:40:40;8.30;99.90
49679;DHT22;35570;48.218;16.326;2023-04-15T11:43:24;8.20;99.90
49679;DHT22;35570;48.218;16.326;2023-04-15T11:45:58;8.30;99.90
49679;DHT22;35570;48.218;16.326;2023-04-15T11:48:29;8.30;99.90
49679;DHT22;35570;48.218;16.326;2023-04-15T11:51:03;8.30;99.90
49679;DHT22;35570;48.218;16.326;2023-04-15T11:53:36;8.20;99.90
49679;DHT22;35570;48.218;16.326;2023-04-15T11:56:02;8.10;99.90
49679;DHT22;35570;48.218;16.326;2023-04-15T11:58:29;8.10;99.90
49679;DHT22;35570;48.218;16.326;2023-04-15T12:01:00;8.20;99.90
49679;DHT22;35570;48.218;16.326;2023-04-15T12:03:30;8.20;99.90
49679;DHT22;35570;48.218;16.326;2023-04-15T12:08:59;8.20;99.90
49679;DHT22;35570;48.218;16.326;2023-04-15T12:11:29;8.10;99.90
49679;DHT22;35570;48.218;16.326;2023-04-15T12:13:56;8.10;99.90
49679;DHT22;35570;48.218;16.326;2023-04-15T12:16:23;8.20;99.90
49679;DHT22;35570;48.218;16.326;2023-04-15T12:18:56;8.20;99.90
49679;DHT22;35570;48.218;16.326;2023-04-15T12:21:23;8.20;99.90
49679;DHT22;35570;48.218;16.326;2023-04-15T12:23:56;8.30;99.90
49679;DHT22;35570;48.218;16.326;2023-04-15T12:26:43;8.40;99.90
49679;DHT22;35570;48.218;16.326;2023-04-15T12:29:10;8.40;99.90
49679;DHT22;35570;48.218;16.326;2023-04-15T12:31:45;8.50;99.90
49679;DHT22;35570;48.218;16.326;2023-04-15T12:34:11;8.50;99.90
49679;DHT22;35570;48.218;16.326;2023-04-15T12:36:36;8.60;99.90
49679;DHT22;35570;48.218;16.326;2023-04-15T12:39:05;8.60;99.90
49679;DHT22;35570;48.218;16.326;2023-04-15T12:41:31;8.60;99.90
49679;DHT22;35570;48.218;16.326;2023-04-15T12:43:58;8.60;99.90
49679;DHT22;35570;48.218;16.326;2023-04-15T12:46:24;8.70;99.90
49679;DHT22;35570;48.218;16.326;2023-04-15T12:48:50;8.70;99.90
49679;DHT22;35570;48.218;16.326;2023-04-15T12:51:19;8.70;99.90
49679;DHT22;35570;48.218;16.326;2023-04-15T12:53:47;8.80;99.90
49679;DHT22;35570;48.218;16.326;2023-04-15T12:56:14;9.10;99.90
49679;DHT22;35570;48.218;16.326;2023-04-15T12:58:41;9.30;99.90
49679;DHT22;35570;48.218;16.326;2023-04-15T13:01:07;9.60;99.90
49679;DHT22;35570;48.218;16.326;2023-04-15T13:03:33;9.80;97.40
49679;DHT22;35570;48.218;16.326;2023-04-15T13:05:58;9.80;98.90
49679;DHT22;35570;48.218;16.326;2023-04-15T13:08:26;9.90;97.10
49679;DHT22;35570;48.218;16.326;2023-04-15T13:10:52;10.70;98.00
49679;DHT22;35570;48.218;16.326;2023-04-15T13:13:18;11.60;93.30
49679;DHT22;35570;48.218;16.326;2023-04-15T13:15:43;11.80;91.50
49679;DHT22;35570;48.218;16.326;2023-04-15T13:18:10;11.50;89.00
49679;DHT22;35570;48.218;16.326;2023-04-15T13:20:36;11.00;91.00
49679;DHT22;35570;48.218;16.326;2023-04-15T13:23:02;10.80;92.30
49679;DHT22;35570;48.218;16.326;2023-04-15T13:25:27;10.50;92.70
49679;DHT22;35570;48.218;16.326;2023-04-15T13:27:53;10.20;95.60
49679;DHT22;35570;48.218;16.326;2023-04-15T13:30:19;10.30;95.70
49679;DHT22;35570;48.218;16.326;2023-04-15T13:32:45;10.30;94.60
49679;DHT22;35570;48.218;16.326;2023-04-15T13:35:10;10.40;97.10
49679;DHT22;35570;48.218;16.326;2023-04-15T13:37:36;10.40;95.60
49679;DHT22;35570;48.218;16.326;2023-04-15T13:40:01;10.30;96.60
49679;DHT22;35570;48.218;16.326;2023-04-15T13:42:27;10.30;97.20
49679;DHT22;35570;48.218;16.326;2023-04-15T13:44:53;10.30;96.70
49679;DHT22;35570;48.218;16.326;2023-04-15T13:47:19;10.20;96.10
49679;DHT22;35570;48.218;16.326;2023-04-15T13:49:45;10.00;93.40
49679;DHT22;35570;48.218;16.326;2023-04-15T13:52:11;9.70;95.80
49679;DHT22;35570;48.218;16.326;2023-04-15T13:54:37;9.40;96.40
49679;DHT22;35570;48.218;16.326;2023-04-15T13:57:04;9.30;97.60
49679;DHT22;35570;48.218;16.326;2023-04-15T13:59:30;9.40;99.00
49679;DHT22;35570;48.218;16.326;2023-04-15T14:01:57;9.50;98.20
49679;DHT22;35570;48.218;16.326;2023-04-15T14:04:22;9.50;97.80
49679;DHT22;35570;48.218;16.326;2023-04-15T14:06:48;9.80;99.90
49679;DHT22;35570;48.218;16.326;2023-04-15T14:09:14;10.90;98.50
49679;DHT22;35570;48.218;16.326;2023-04-15T14:11:40;11.80;94.90
49679;DHT22;35570;48.218;16.326;2023-04-15T14:14:05;12.80;87.20
49679;DHT22;35570;48.218;16.326;2023-04-15T14:16:32;13.00;81.50
49679;DHT22;35570;48.218;16.326;2023-04-15T14:18:58;12.90;80.60
49679;DHT22;35570;48.218;16.326;2023-04-15T14:21:24;12.90;79.80
49679;DHT22;35570;48.218;16.326;2023-04-15T14:23:52;12.90;79.70
49679;DHT22;35570;48.218;16.326;2023-04-15T14:26:18;12.50;78.50
49679;DHT22;35570;48.218;16.326;2023-04-15T14:28:43;12.00;82.00
49679;DHT22;35570;48.218;16.326;2023-04-15T14:31:09;11.60;81.90
49679;DHT22;35570;48.218;16.326;2023-04-15T14:33:35;11.40;88.10
49679;DHT22;35570;48.218;16.326;2023-04-15T14:36:01;11.20;86.90
49679;DHT22;35570;48.218;16.326;2023-04-15T14:38:27;11.20;87.60
49679;DHT22;35570;48.218;16.326;2023-04-15T14:40:53;10.70;88.10
49679;DHT22;35570;48.218;16.326;2023-04-15T14:43:19;10.50;91.40
49679;DHT22;35570;48.218;16.326;2023-04-15T14:45:45;10.30;92.20
49679;DHT22;35570;48.218;16.326;2023-04-15T14:48:10;10.20;91.20
49679;DHT22;35570;48.218;16.326;2023-04-15T14:50:37;10.00;92.40
49679;DHT22;35570;48.218;16.326;2023-04-15T14:53:03;9.80;92.40
49679;DHT22;35570;48.218;16.326;2023-04-15T14:55:29;9.70;94.90
49679;DHT22;35570;48.218;16.326;2023-04-15T14:57:54;9.60;94.40
49679;DHT22;35570;48.218;16.326;2023-04-15T15:00:20;9.50;94.40
49679;DHT22;35570;48.218;16.326;2023-04-15T15:02:46;9.40;95.20
49679;DHT22;35570;48.218;16.326;2023-04-15T15:05:11;9.30;96.80
49679;DHT22;35570;48.218;16.326;2023-04-15T15:07:38;9.30;96.00
49679;DHT22;35570;48.218;16.326;2023-04-15T15:10:05;9.20;96.10
49679;DHT22;35570;48.218;16.326;2023-04-15T15:12:31;9.20;97.00
49679;DHT22;35570;48.218;16.326;2023-04-15T15:14:57;9.10;97.40
49679;DHT22;35570;48.218;16.326;2023-04-15T15:17:23;9.00;97.90
49679;DHT22;35570;48.218;16.326;2023-04-15T15:19:49;9.10;97.60
49679;DHT22;35570;48.218;16.326;2023-04-15T15:22:14;9.00;97.60
49679;DHT22;35570;48.218;16.326;2023-04-15T15:24:40;8.90;98.40
49679;DHT22;35570;48.218;16.326;2023-04-15T15:27:06;8.90;98.50
49679;DHT22;35570;48.218;16.326;2023-04-15T15:29:31;9.00;98.70
49679;DHT22;35570;48.218;16.326;2023-04-15T15:31:57;9.00;99.20
49679;DHT22;35570;48.218;16.326;2023-04-15T15:34:23;9.10;98.70
49679;DHT22;35570;48.218;16.326;2023-04-15T15:36:49;9.10;98.40
49679;DHT22;35570;48.218;16.326;2023-04-15T15:39:15;9.10;98.70
49679;DHT22;35570;48.218;16.326;2023-04-15T15:41:40;9.30;98.40
49679;DHT22;35570;48.218;16.326;2023-04-15T15:44:06;9.50;99.00
49679;DHT22;35570;48.218;16.326;2023-04-15T15:46:31;9.80;97.20
49679;DHT22;35570;48.218;16.326;2023-04-15T15:48:57;10.00;96.60
49679;DHT22;35570;48.218;16.326;2023-04-15T15:51:23;10.00;96.80